Time;durP1;ratioP1;P1;durP2;ratioP2;P2;SDS_P1;SDS_P2;PMS_P1;PMS_P2;Temp;Humidity;BMP_temperature;BMP_pressure;BME280_temperature;BME280_humidity;BME280_pressure;Samples;Min_cycle;Max_cycle;Signal;HPM_P1;HPM_P2
2021/01/11 00:02:17;;;;;;;8.60;3.15;;;24.40;52.20;;;;;;5060914;28;20024;-68
2021/01/11 00:04:43;;;;;;;9.95;2.05;;;24.40;52.20;;;;;;5064751;28;20591;-68
2021/01/11 00:07:12;;;;;;;10.77;3.17;;;24.40;52.30;;;;;;5063718;28;20060;-67
2021/01/11 00:09:39;;;;;;;13.82;2.40;;;24.40;52.30;;;;;;5067632;28;20021;-67
2021/01/11 00:12:08;;;;;;;8.25;2.40;;;24.30;52.30;;;;;;5066088;28;20078;-67
2021/01/11 00:14:35;;;;;;;12.13;3.35;;;24.30;52.30;;;;;;5067160;28;20383;-68
2021/01/11 00:17:02;;;;;;;8.02;3.05;;;24.30;52.40;;;;;;5065390;28;20033;-68
2021/01/11 00:19:28;;;;;;;8.95;2.97;;;24.30;52.50;;;;;;5070529;28;20514;-68
2021/01/11 00:21:55;;;;;;;7.90;2.08;;;24.30;52.60;;;;;;5067394;28;20028;-68
2021/01/11 00:24:21;;;;;;;6.97;2.83;;;24.20;52.60;;;;;;5068421;28;20013;-68
2021/01/11 00:26:52;;;;;;;9.30;2.53;;;24.30;52.70;;;;;;5062142;28;20025;-68
2021/01/11 00:29:20;;;;;;;9.65;2.13;;;24.20;52.60;;;;;;5066542;28;20143;-68
2021/01/11 00:31:47;;;;;;;8.75;2.83;;;24.20;52.70;;;;;;5065485;28;20016;-68
2021/01/11 00:34:13;;;;;;;8.50;3.03;;;24.20;52.70;;;;;;5064625;28;20024;-67
2021/01/11 00:36:40;;;;;;;14.88;2.88;;;24.20;52.70;;;;;;5069100;28;20017;-68
2021/01/11 00:39:06;;;;;;;8.07;2.47;;;24.20;52.80;;;;;;5068014;28;20348;-67
2021/01/11 00:41:33;;;;;;;14.32;3.53;;;24.20;52.90;;;;;;5069598;28;20013;-68
2021/01/11 00:44:00;;;;;;;10.23;3.03;;;24.20;52.90;;;;;;5068716;28;20029;-68
2021/01/11 00:46:28;;;;;;;7.57;2.78;;;24.20;52.90;;;;;;5068483;28;20036;-68
2021/01/11 00:48:56;;;;;;;13.73;4.07;;;24.20;52.90;;;;;;5066135;28;20104;-68
2021/01/11 00:51:24;;;;;;;7.60;2.05;;;24.20;53.00;;;;;;5067428;28;20082;-67
2021/01/11 00:53:51;;;;;;;7.85;3.88;;;24.20;53.20;;;;;;5066260;28;20086;-67
2021/01/11 00:56:20;;;;;;;9.20;2.15;;;24.10;53.20;;;;;;5067164;28;20028;-67
2021/01/11 00:58:47;;;;;;;7.55;2.33;;;24.10;53.30;;;;;;5064068;28;20085;-67
2021/01/11 01:01:15;;;;;;;8.52;2.88;;;24.10;53.20;;;;;;5067339;28;20073;-67
2021/01/11 01:03:42;;;;;;;7.43;2.28;;;24.10;53.10;;;;;;5066227;28;20127;-67
2021/01/11 01:06:12;;;;;;;6.32;2.30;;;24.10;53.10;;;;;;5070123;28;20037;-68
2021/01/11 01:08:39;;;;;;;9.65;3.22;;;24.10;53.10;;;;;;5060336;28;20074;-68
2021/01/11 01:11:08;;;;;;;13.52;3.38;;;24.10;53.20;;;;;;5069130;28;20025;-68
2021/01/11 01:13:35;;;;;;;5.35;1.90;;;24.00;53.20;;;;;;5069440;28;20025;-67
2021/01/11 01:16:02;;;;;;;14.70;3.35;;;24.00;53.30;;;;;;5065783;28;20141;-68
2021/01/11 01:18:28;;;;;;;8.73;2.85;;;24.00;53.40;;;;;;5065270;28;20028;-68
2021/01/11 01:20:55;;;;;;;8.85;3.00;;;24.00;53.50;;;;;;5064185;28;20032;-68
2021/01/11 01:23:21;;;;;;;8.13;3.15;;;24.00;53.60;;;;;;5067743;28;20035;-68
2021/01/11 01:25:48;;;;;;;6.45;2.67;;;24.00;53.70;;;;;;5066301;28;20044;-67
2021/01/11 01:28:15;;;;;;;8.52;2.35;;;24.00;53.70;;;;;;5066923;28;20071;-67
2021/01/11 01:30:41;;;;;;;6.53;2.22;;;24.00;53.70;;;;;;5064352;28;20111;-66
2021/01/11 01:33:08;;;;;;;7.50;2.40;;;24.00;53.70;;;;;;5066253;28;20427;-67
2021/01/11 01:35:34;;;;;;;10.10;3.53;;;24.00;53.70;;;;;;5063561;28;20020;-67
2021/01/11 01:38:01;;;;;;;7.70;2.05;;;23.90;53.70;;;;;;5064845;28;20013;-67
2021/01/11 01:40:27;;;;;;;15.65;2.90;;;24.00;53.80;;;;;;5068139;28;20119;-66
2021/01/11 01:42:54;;;;;;;8.30;2.40;;;23.90;53.80;;;;;;5067310;28;20845;-67
2021/01/11 01:45:21;;;;;;;8.60;3.65;;;23.90;53.80;;;;;;5066442;28;20032;-67
2021/01/11 01:47:48;;;;;;;8.93;2.20;;;23.90;53.80;;;;;;5060598;28;20072;-67
2021/01/11 01:50:15;;;;;;;10.32;2.25;;;23.90;53.90;;;;;;5063884;28;20031;-67
2021/01/11 01:52:44;;;;;;;6.68;2.45;;;23.90;54.00;;;;;;5065389;28;20098;-67
2021/01/11 01:55:12;;;;;;;11.18;2.47;;;23.90;54.00;;;;;;5066918;28;20471;-67
2021/01/11 01:57:41;;;;;;;14.13;2.42;;;23.90;54.20;;;;;;5066518;28;20460;-67
2021/01/11 02:00:11;;;;;;;10.07;3.60;;;23.90;54.90;;;;;;5060809;28;20396;-67
2021/01/11 02:02:38;;;;;;;10.75;2.78;;;23.80;54.40;;;;;;5067106;28;20033;-67
2021/01/11 02:05:09;;;;;;;8.55;2.47;;;23.90;54.50;;;;;;5066168;28;20044;-67
2021/01/11 02:07:43;;;;;;;5.55;2.35;;;23.90;54.60;;;;;;5063545;28;20514;-67
2021/01/11 02:10:35;;;;;;;6.53;2.53;;;23.90;54.60;;;;;;5064404;28;20086;-67
2021/01/11 02:13:27;;;;;;;8.50;2.67;;;23.80;54.60;;;;;;5063364;28;20103;-68
2021/01/11 02:16:16;;;;;;;6.53;3.17;;;23.80;54.70;;;;;;5062773;28;20025;-67
2021/01/11 02:19:13;;;;;;;9.25;2.50;;;23.80;54.70;;;;;;5067344;28;20493;-68
2021/01/11 02:22:11;;;;;;;6.85;2.15;;;23.80;54.70;;;;;;5060797;28;20099;-67
2021/01/11 02:25:02;;;;;;;5.45;1.90;;;23.80;54.80;;;;;;5063095;28;20024;-67
2021/01/11 02:27:57;;;;;;;5.45;2.22;;;23.80;54.80;;;;;;5061695;28;20062;-68
2021/01/11 02:30:32;;;;;;;6.40;1.93;;;23.70;54.80;;;;;;5058403;28;20033;-68
2021/01/11 02:33:08;;;;;;;7.15;2.03;;;23.70;54.90;;;;;;5066597;28;20013;-68
2021/01/11 02:35:50;;;;;;;7.40;2.22;;;23.70;54.90;;;;;;5064564;28;20041;-67
2021/01/11 02:38:21;;;;;;;8.93;2.08;;;23.70;54.90;;;;;;5066804;28;20107;-68
2021/01/11 02:40:49;;;;;;;8.68;2.70;;;23.70;55.10;;;;;;5062542;28;20081;-68
2021/01/11 02:43:16;;;;;;;8.35;1.95;;;23.70;55.20;;;;;;5064775;28;20043;-67
2021/01/11 02:45:43;;;;;;;10.32;2.60;;;23.70;55.30;;;;;;5064116;28;20032;-67
2021/01/11 02:48:42;;;;;;;9.13;2.65;;;23.60;55.30;;;;;;5063096;28;20023;-67
2021/01/11 02:51:22;;;;;;;3.65;1.80;;;23.60;55.40;;;;;;5060533;28;20127;-67
2021/01/11 02:54:10;;;;;;;8.63;2.25;;;23.60;55.40;;;;;;5064528;28;20028;-68
2021/01/11 02:56:49;;;;;;;8.85;2.05;;;23.60;55.50;;;;;;5064347;28;20028;-67
2021/01/11 02:59:23;;;;;;;5.22;2.10;;;23.60;55.60;;;;;;5064937;28;20079;-67
2021/01/11 03:02:04;;;;;;;6.45;3.05;;;23.60;55.60;;;;;;5060899;28;20036;-67
2021/01/11 03:04:32;;;;;;;5.05;2.15;;;23.60;55.70;;;;;;5065955;28;20041;-67
2021/01/11 03:07:01;;;;;;;6.80;2.05;;;23.60;55.70;;;;;;5064694;28;20495;-67
2021/01/11 03:09:29;;;;;;;9.77;2.28;;;23.60;55.80;;;;;;5066982;28;20487;-68
2021/01/11 03:11:57;;;;;;;9.00;2.40;;;23.60;55.90;;;;;;5065925;28;20026;-67
2021/01/11 03:14:24;;;;;;;11.77;2.75;;;23.60;56.00;;;;;;5066618;28;20501;-67
2021/01/11 03:16:51;;;;;;;7.25;2.60;;;23.60;56.10;;;;;;5062442;28;20017;-68
2021/01/11 03:19:18;;;;;;;6.07;2.03;;;23.50;56.20;;;;;;5064121;28;20024;-68
2021/01/11 03:21:45;;;;;;;7.30;2.55;;;23.50;56.20;;;;;;5061796;28;20104;-68
2021/01/11 03:24:18;;;;;;;6.85;2.60;;;23.50;56.20;;;;;;5067369;28;20133;-67
2021/01/11 03:26:45;;;;;;;8.07;2.47;;;23.50;56.40;;;;;;5059634;28;20028;-68
2021/01/11 03:29:13;;;;;;;8.27;2.08;;;23.50;56.50;;;;;;5061826;28;20115;-67
2021/01/11 03:31:39;;;;;;;5.10;2.10;;;23.50;56.50;;;;;;5063920;28;20475;-68
2021/01/11 03:34:07;;;;;;;7.78;2.58;;;23.50;56.50;;;;;;5064785;28;20020;-67
2021/01/11 03:36:35;;;;;;;9.85;2.15;;;23.50;56.50;;;;;;5065242;28;20047;-67
2021/01/11 03:39:02;;;;;;;11.30;3.08;;;23.50;56.60;;;;;;5064549;28;20108;-67
2021/01/11 03:41:29;;;;;;;6.90;2.65;;;23.50;56.60;;;;;;5070769;28;20016;-67
2021/01/11 03:43:56;;;;;;;6.95;2.60;;;23.50;56.70;;;;;;5065246;28;20103;-67
2021/01/11 03:46:22;;;;;;;15.38;2.92;;;23.50;56.70;;;;;;5067979;28;20036;-68
2021/01/11 03:48:49;;;;;;;6.95;2.45;;;23.40;56.70;;;;;;5068119;28;20421;-67
2021/01/11 03:51:15;;;;;;;8.88;2.38;;;23.40;56.80;;;;;;5065599;28;20103;-67
2021/01/11 03:53:45;;;;;;;4.93;2.05;;;23.40;56.90;;;;;;5064183;28;20013;-67
2021/01/11 03:56:11;;;;;;;8.55;2.38;;;23.40;57.00;;;;;;5068250;28;20024;-66
2021/01/11 03:58:38;;;;;;;10.45;2.58;;;23.40;57.10;;;;;;5068781;28;20056;-69
2021/01/11 04:01:05;;;;;;;8.10;3.92;;;23.40;57.20;;;;;;5067269;28;20025;-69
2021/01/11 04:03:32;;;;;;;9.20;2.83;;;23.40;57.30;;;;;;5067467;28;20120;-69
2021/01/11 04:05:59;;;;;;;15.30;8.93;;;23.40;57.40;;;;;;5067180;28;20048;-69
2021/01/11 04:08:26;;;;;;;15.10;10.63;;;23.40;57.40;;;;;;5066231;28;20021;-69
2021/01/11 04:10:53;;;;;;;11.95;6.70;;;23.40;57.40;;;;;;5065712;28;20056;-69
2021/01/11 04:13:20;;;;;;;16.13;6.10;;;23.40;57.60;;;;;;5069500;28;20016;-68
2021/01/11 04:15:48;;;;;;;10.32;5.15;;;23.40;57.70;;;;;;5065370;28;20509;-69
2021/01/11 04:18:14;;;;;;;6.30;2.97;;;23.30;57.70;;;;;;5066884;28;20017;-68
2021/01/11 04:20:41;;;;;;;7.82;2.78;;;23.30;57.70;;;;;;5066082;28;20115;-68
2021/01/11 04:23:08;;;;;;;7.82;2.90;;;23.40;57.80;;;;;;5064952;28;20503;-67
2021/01/11 04:25:34;;;;;;;5.60;2.33;;;23.40;57.80;;;;;;5064043;28;20043;-67
2021/01/11 04:28:03;;;;;;;4.72;2.08;;;23.40;57.90;;;;;;5068962;28;20023;-68
2021/01/11 04:30:30;;;;;;;8.70;3.13;;;23.40;57.90;;;;;;5066857;28;20039;-68
2021/01/11 04:32:57;;;;;;;15.57;7.95;;;23.30;57.90;;;;;;5066926;28;20021;-68
2021/01/11 04:35:26;;;;;;;18.55;13.20;;;23.40;58.00;;;;;;5063399;28;20035;-69
2021/01/11 04:37:53;;;;;;;14.88;9.55;;;23.30;58.00;;;;;;5066508;28;20534;-67
2021/01/11 04:40:20;;;;;;;26.13;20.95;;;23.30;58.00;;;;;;5067098;28;20407;-69
2021/01/11 04:43:11;;;;;;;22.60;16.75;;;23.30;58.10;;;;;;5069760;28;20048;-67
2021/01/11 04:45:38;;;;;;;14.68;10.35;;;23.40;58.10;;;;;;5063549;28;20024;-69
2021/01/11 04:48:06;;;;;;;12.75;8.40;;;23.40;58.20;;;;;;5066393;28;20123;-70
2021/01/11 04:50:32;;;;;;;12.40;6.10;;;23.40;58.20;;;;;;5066705;28;20024;-69
2021/01/11 04:53:06;;;;;;;7.90;4.75;;;23.30;58.20;;;;;;5065295;28;20033;-70
2021/01/11 04:55:37;;;;;;;6.68;3.58;;;23.30;58.20;;;;;;5063205;28;20020;-69
2021/01/11 04:58:08;;;;;;;6.25;3.40;;;23.30;58.30;;;;;;5081787;28;20119;-69
2021/01/11 05:00:35;;;;;;;10.52;3.60;;;23.30;58.20;;;;;;5064196;28;20021;-70
2021/01/11 05:03:06;;;;;;;11.23;3.55;;;23.30;58.20;;;;;;5064338;28;20017;-70
2021/01/11 05:05:35;;;;;;;7.72;2.55;;;23.40;58.20;;;;;;5067141;28;20080;-68
2021/01/11 05:08:02;;;;;;;6.68;2.08;;;23.40;58.20;;;;;;5067460;28;20480;-70
2021/01/11 05:10:31;;;;;;;17.20;3.03;;;23.40;58.20;;;;;;5065907;28;20117;-69
2021/01/11 05:12:59;;;;;;;8.40;2.40;;;23.30;58.20;;;;;;5064605;28;20510;-69
2021/01/11 05:15:28;;;;;;;4.88;1.50;;;23.40;58.30;;;;;;5066270;28;21099;-68
2021/01/11 05:17:55;;;;;;;6.22;1.98;;;23.40;58.30;;;;;;5062277;28;20033;-69
2021/01/11 05:20:24;;;;;;;6.70;2.20;;;23.30;58.30;;;;;;5065480;28;20060;-68
2021/01/11 05:22:53;;;;;;;8.40;2.08;;;23.30;58.40;;;;;;5062581;28;20050;-69
2021/01/11 05:25:22;;;;;;;12.98;2.17;;;23.40;58.50;;;;;;5062499;28;20472;-69
2021/01/11 05:28:08;;;;;;;10.00;2.85;;;23.40;58.50;;;;;;5065478;28;20389;-69
2021/01/11 05:30:40;;;;;;;8.30;2.33;;;23.40;58.50;;;;;;5063649;28;20021;-69
2021/01/11 05:33:09;;;;;;;7.15;1.83;;;23.40;58.50;;;;;;5067863;28;20459;-66
2021/01/11 05:35:39;;;;;;;6.05;2.55;;;23.40;58.50;;;;;;5064462;28;20096;-67
2021/01/11 05:38:15;;;;;;;4.93;1.80;;;23.40;58.50;;;;;;5062874;28;20024;-68
2021/01/11 05:40:43;;;;;;;7.50;2.15;;;23.50;58.50;;;;;;5062090;28;20025;-66
2021/01/11 05:43:16;;;;;;;7.90;2.00;;;23.50;58.50;;;;;;5064774;28;20032;-68
2021/01/11 05:45:43;;;;;;;6.82;2.75;;;23.50;58.50;;;;;;5063045;28;20063;-68
2021/01/11 05:48:12;;;;;;;4.85;1.73;;;23.50;58.50;;;;;;5059233;28;20016;-68
2021/01/11 05:50:48;;;;;;;6.22;1.98;;;23.50;58.50;;;;;;5061734;28;20016;-68
2021/01/11 05:53:18;;;;;;;8.02;2.72;;;23.60;58.60;;;;;;5064168;28;20019;-68
2021/01/11 05:55:46;;;;;;;4.97;1.35;;;23.60;58.60;;;;;;5065752;28;20084;-68
2021/01/11 05:58:14;;;;;;;6.35;1.52;;;23.60;58.60;;;;;;5064830;28;20025;-66
2021/01/11 06:00:42;;;;;;;5.18;1.70;;;23.70;58.60;;;;;;5065569;28;20059;-68
2021/01/11 06:03:10;;;;;;;7.97;2.70;;;23.70;58.50;;;;;;5061182;28;20116;-67
2021/01/11 06:05:37;;;;;;;9.05;3.05;;;23.70;58.50;;;;;;5062798;28;20049;-67
2021/01/11 06:08:06;;;;;;;7.65;2.72;;;23.80;58.40;;;;;;5061363;28;20028;-68
2021/01/11 06:10:33;;;;;;;6.55;2.85;;;23.80;58.50;;;;;;5058171;28;20021;-68
2021/01/11 06:13:00;;;;;;;10.50;3.67;;;23.80;58.40;;;;;;5063421;28;20032;-68
2021/01/11 06:15:28;;;;;;;5.68;2.00;;;23.90;58.90;;;;;;5061029;28;20032;-68
2021/01/11 06:17:58;;;;;;;7.85;2.83;;;23.90;58.30;;;;;;5063988;28;20112;-68
2021/01/11 06:20:29;;;;;;;8.20;2.38;;;23.90;58.20;;;;;;5063856;28;20051;-68
2021/01/11 06:22:58;;;;;;;10.52;2.55;;;23.90;58.10;;;;;;5061928;28;20112;-67
2021/01/11 06:25:25;;;;;;;10.57;2.65;;;24.00;58.10;;;;;;5062247;28;20098;-68
2021/01/11 06:28:09;;;;;;;11.27;2.72;;;24.00;58.00;;;;;;5063035;28;20098;-68
2021/01/11 06:30:36;;;;;;;13.80;3.92;;;24.10;58.00;;;;;;5066942;28;20143;-68
2021/01/11 06:33:17;;;;;;;7.78;3.05;;;24.10;57.90;;;;;;5063225;28;20107;-68
2021/01/11 06:35:49;;;;;;;12.93;8.05;;;24.10;57.80;;;;;;5063402;28;20052;-68
2021/01/11 06:38:18;;;;;;;11.73;6.50;;;24.20;57.80;;;;;;5064532;28;20111;-69
2021/01/11 06:40:49;;;;;;;9.50;4.57;;;24.20;57.60;;;;;;5056954;28;20025;-69
2021/01/11 06:43:17;;;;;;;8.68;4.47;;;24.20;57.40;;;;;;5059913;28;20498;-69
2021/01/11 06:45:45;;;;;;;7.68;3.50;;;24.30;57.30;;;;;;5058369;28;20037;-69
2021/01/11 06:48:20;;;;;;;8.65;3.00;;;24.30;57.20;;;;;;5059806;28;20094;-69
2021/01/11 06:50:49;;;;;;;6.65;2.55;;;24.30;57.10;;;;;;5058526;28;20033;-69
2021/01/11 06:53:29;;;;;;;5.47;2.60;;;24.40;57.00;;;;;;5061429;28;20020;-70
2021/01/11 06:56:09;;;;;;;7.13;2.40;;;24.40;57.00;;;;;;5061342;28;20021;-69
2021/01/11 06:58:40;;;;;;;7.80;2.42;;;24.40;56.80;;;;;;5060449;28;20032;-69
2021/01/11 07:01:11;;;;;;;7.53;2.10;;;24.50;56.90;;;;;;5059845;28;20036;-69
2021/01/11 07:03:50;;;;;;;5.70;2.05;;;24.50;56.80;;;;;;5061177;28;20031;-69
2021/01/11 07:06:36;;;;;;;4.75;1.50;;;24.60;56.70;;;;;;5062217;28;20033;-69
2021/01/11 07:09:11;;;;;;;7.03;1.95;;;24.60;56.50;;;;;;5060907;28;20052;-69
2021/01/11 07:11:43;;;;;;;4.72;1.63;;;24.60;56.40;;;;;;5060616;28;20028;-69
2021/01/11 07:14:11;;;;;;;7.55;2.20;;;24.60;56.30;;;;;;5058555;28;20020;-68
2021/01/11 07:16:44;;;;;;;5.53;2.38;;;24.70;56.30;;;;;;5058063;28;20031;-70
2021/01/11 07:19:13;;;;;;;4.97;2.03;;;24.70;56.10;;;;;;5061547;28;20029;-69
2021/01/11 07:21:40;;;;;;;5.90;1.92;;;24.80;56.00;;;;;;5061076;28;20028;-69
2021/01/11 07:24:08;;;;;;;4.55;1.75;;;24.80;55.80;;;;;;5060526;28;20031;-69
2021/01/11 07:26:35;;;;;;;5.43;1.55;;;24.90;55.70;;;;;;5061303;28;20035;-69
2021/01/11 07:29:19;;;;;;;7.95;2.47;;;24.90;55.60;;;;;;5061594;28;20025;-69
2021/01/11 07:31:47;;;;;;;7.57;1.95;;;24.90;55.50;;;;;;5059680;28;20792;-69
2021/01/11 07:34:19;;;;;;;8.43;2.17;;;25.00;55.50;;;;;;5059439;28;20105;-69
2021/01/11 07:36:47;;;;;;;4.40;2.15;;;25.00;55.50;;;;;;5059275;28;20017;-69
2021/01/11 07:39:23;;;;;;;6.68;1.80;;;25.00;55.60;;;;;;5060637;28;20029;-69
2021/01/11 07:41:51;;;;;;;7.70;2.28;;;25.10;55.60;;;;;;5058664;28;20036;-69
2021/01/11 07:44:25;;;;;;;8.05;2.78;;;25.10;55.60;;;;;;5062567;28;20116;-69
2021/01/11 07:46:57;;;;;;;8.98;2.13;;;25.20;55.60;;;;;;5057494;28;20040;-69
2021/01/11 07:49:24;;;;;;;7.28;1.90;;;25.20;55.50;;;;;;5058715;28;20042;-69
2021/01/11 07:51:51;;;;;;;6.65;2.15;;;25.30;55.40;;;;;;5058779;28;20035;-69
2021/01/11 07:54:20;;;;;;;9.32;2.10;;;25.30;55.20;;;;;;5059509;28;20078;-69
2021/01/11 07:56:48;;;;;;;5.35;1.90;;;25.40;55.00;;;;;;5061401;28;20023;-69
2021/01/11 07:59:15;;;;;;;7.88;1.63;;;25.40;54.80;;;;;;5058965;28;20123;-70
2021/01/11 08:01:44;;;;;;;2.95;1.77;;;25.50;54.60;;;;;;5057682;28;20052;-69
2021/01/11 08:04:12;;;;;;;6.90;1.45;;;25.50;54.50;;;;;;5057295;28;20041;-69
2021/01/11 08:06:57;;;;;;;6.30;1.80;;;25.60;54.30;;;;;;5059362;28;20044;-69
2021/01/11 08:09:26;;;;;;;7.53;1.60;;;25.60;54.20;;;;;;5061056;28;20017;-70
2021/01/11 08:12:15;;;;;;;9.25;1.80;;;25.70;54.00;;;;;;5058138;28;20103;-69
2021/01/11 08:14:43;;;;;;;4.57;1.80;;;25.80;53.90;;;;;;5057280;28;20106;-69
2021/01/11 08:17:20;;;;;;;7.10;1.75;;;25.80;53.70;;;;;;5057927;28;20028;-69
2021/01/11 08:19:55;;;;;;;8.10;2.05;;;25.80;53.50;;;;;;5060295;28;20058;-69
2021/01/11 08:23:01;;;;;;;5.95;1.80;;;25.90;53.30;;;;;;5060968;28;20032;-69
2021/01/11 08:25:47;;;;;;;;;;;25.90;53.30;;;;;;5056698;28;20025;-69
2021/01/11 08:28:53;;;;;;;4.20;2.05;;;26.00;53.30;;;;;;5059837;28;19908;-69
2021/01/11 08:31:39;;;;;;;;;;;26.10;53.30;;;;;;5065309;28;20039;-69
2021/01/11 08:34:25;;;;;;;;;;;26.10;53.10;;;;;;5060094;28;19965;-70
2021/01/11 08:37:30;;;;;;;7.50;1.90;;;26.20;53.00;;;;;;5061870;28;19913;-69
2021/01/11 08:40:38;;;;;;;4.43;1.40;;;26.30;52.70;;;;;;5059659;28;20036;-69
2021/01/11 08:43:53;;;;;;;4.05;1.48;;;26.30;52.50;;;;;;5063505;28;20716;-70
2021/01/11 08:47:14;;;;;;;4.82;2.05;;;26.40;52.40;;;;;;5061322;28;20036;-69
2021/01/11 08:50:27;;;;;;;4.07;1.75;;;26.50;52.10;;;;;;5060172;28;20040;-69
2021/01/11 08:53:43;;;;;;;4.55;1.20;;;26.60;52.00;;;;;;5065188;28;20033;-69
2021/01/11 08:56:49;;;;;;;7.40;1.52;;;26.70;51.80;;;;;;5061934;28;20013;-69
2021/01/11 08:59:35;;;;;;;;;;;26.70;51.40;;;;;;5063718;28;20107;-70
2021/01/11 09:02:44;;;;;;;6.82;1.40;;;26.70;51.40;;;;;;5064384;28;19991;-69
2021/01/11 09:05:56;;;;;;;6.63;1.90;;;26.80;51.30;;;;;;5074041;28;20099;-70
2021/01/11 09:09:02;;;;;;;6.65;1.83;;;26.90;51.10;;;;;;5060147;28;20075;-69
2021/01/11 09:12:08;;;;;;;5.65;1.65;;;27.00;51.10;;;;;;5064815;28;20016;-69
2021/01/11 09:15:14;;;;;;;4.20;1.77;;;27.10;50.80;;;;;;5063923;28;20024;-69
2021/01/11 09:18:23;;;;;;;5.40;2.30;;;27.20;50.60;;;;;;5060723;28;20139;-70
2021/01/11 09:21:30;;;;;;;4.72;2.10;;;27.20;50.40;;;;;;5061000;28;20032;-69
2021/01/11 09:24:36;;;;;;;8.52;1.85;;;27.30;50.40;;;;;;5056017;28;20373;-70
2021/01/11 09:27:42;;;;;;;3.38;1.73;;;27.40;50.10;;;;;;5063395;28;20377;-70
2021/01/11 09:30:50;;;;;;;2.92;1.30;;;27.50;50.00;;;;;;5062566;28;20107;-69
2021/01/11 09:33:57;;;;;;;4.32;2.03;;;27.60;49.70;;;;;;5061687;28;20799;-70
2021/01/11 09:37:03;;;;;;;4.78;1.88;;;27.70;49.60;;;;;;5062962;28;20455;-69
2021/01/11 09:40:09;;;;;;;6.88;2.47;;;27.80;49.60;;;;;;5065206;28;20182;-69
2021/01/11 09:43:16;;;;;;;5.53;1.95;;;27.80;49.30;;;;;;5063573;28;20491;-70
2021/01/11 09:46:22;;;;;;;6.30;1.75;;;27.80;49.40;;;;;;5059663;28;20056;-69
2021/01/11 09:49:28;;;;;;;6.38;1.90;;;27.90;49.10;;;;;;5076996;28;20480;-69
2021/01/11 09:52:35;;;;;;;7.85;2.85;;;27.90;48.90;;;;;;5056534;28;20820;-69
2021/01/11 09:55:41;;;;;;;7.32;2.30;;;28.00;48.70;;;;;;5061400;28;20028;-69
2021/01/11 09:58:48;;;;;;;4.60;1.73;;;28.00;48.60;;;;;;5060310;28;20042;-69
2021/01/11 10:01:37;;;;;;;7.00;1.55;;;28.10;48.40;;;;;;5058154;28;20024;-69
2021/01/11 10:04:43;;;;;;;7.13;1.80;;;28.20;48.40;;;;;;5062593;28;20113;-69
2021/01/11 10:07:49;;;;;;;6.18;1.92;;;28.20;48.50;;;;;;5053799;28;20043;-70
2021/01/11 10:10:56;;;;;;;15.80;2.80;;;28.30;48.60;;;;;;5063033;28;20020;-69
2021/01/11 10:14:02;;;;;;;6.85;3.10;;;28.40;48.40;;;;;;5058731;28;20028;-69
2021/01/11 10:17:08;;;;;;;7.97;2.38;;;28.40;48.30;;;;;;5061283;28;20021;-69
2021/01/11 10:20:14;;;;;;;10.90;2.33;;;28.50;48.40;;;;;;5059898;28;20051;-69
2021/01/11 10:23:20;;;;;;;5.40;2.42;;;28.50;48.20;;;;;;5057377;28;20030;-70
2021/01/11 10:26:27;;;;;;;7.47;2.63;;;28.60;48.30;;;;;;5059335;28;20071;-69
2021/01/11 10:29:33;;;;;;;5.95;1.65;;;28.60;48.00;;;;;;5064448;28;20028;-68
2021/01/11 10:32:40;;;;;;;9.73;2.47;;;28.70;48.10;;;;;;5060593;28;20169;-69
2021/01/11 10:35:46;;;;;;;8.77;2.35;;;28.70;48.00;;;;;;5058104;28;20373;-69
2021/01/11 10:38:53;;;;;;;9.07;2.53;;;28.80;48.00;;;;;;5062402;28;20028;-70
2021/01/11 10:41:59;;;;;;;7.60;2.95;;;28.80;47.90;;;;;;5057858;28;20028;-69
2021/01/11 10:45:05;;;;;;;9.20;1.75;;;28.80;47.90;;;;;;5063228;28;20604;-69
2021/01/11 10:48:11;;;;;;;9.88;5.15;;;28.90;47.70;;;;;;5056008;28;20033;-69
2021/01/11 10:51:18;;;;;;;8.95;2.53;;;29.00;47.70;;;;;;5062893;28;20023;-70
2021/01/11 10:54:24;;;;;;;9.00;2.60;;;29.20;47.20;;;;;;5063463;28;20029;-70
2021/01/11 10:57:30;;;;;;;11.85;2.75;;;29.40;46.80;;;;;;5061881;28;20025;-70
2021/01/11 11:00:36;;;;;;;11.60;2.30;;;29.60;46.00;;;;;;5061799;28;20028;-70
2021/01/11 11:03:43;;;;;;;6.53;1.98;;;29.80;45.30;;;;;;5068841;28;20479;-70
2021/01/11 11:06:49;;;;;;;9.25;2.33;;;29.90;45.10;;;;;;5066167;28;20041;-70
2021/01/11 11:10:11;;;;;;;7.57;2.35;;;29.90;45.40;;;;;;5057775;28;20060;-69
2021/01/11 11:13:17;;;;;;;7.28;1.70;;;29.80;45.70;;;;;;5062945;28;20097;-70
2021/01/11 11:16:23;;;;;;;9.30;2.47;;;29.70;46.10;;;;;;5062240;28;20028;-69
2021/01/11 11:19:29;;;;;;;8.27;2.92;;;29.70;46.40;;;;;;5063711;28;20487;-69
2021/01/11 11:22:35;;;;;;;5.88;2.40;;;29.60;46.50;;;;;;5062957;28;20029;-70
2021/01/11 11:25:45;;;;;;;12.68;2.63;;;29.60;46.60;;;;;;5061054;28;20027;-69
2021/01/11 11:28:51;;;;;;;8.75;2.97;;;29.60;46.80;;;;;;5065169;28;20031;-68
2021/01/11 11:31:57;;;;;;;14.73;2.45;;;29.70;47.10;;;;;;5065361;28;20032;-67
2021/01/11 11:35:05;;;;;;;12.45;3.10;;;29.70;47.20;;;;;;5061991;28;20070;-68
2021/01/11 11:38:11;;;;;;;6.53;2.47;;;29.80;47.20;;;;;;5056503;28;20372;-68
2021/01/11 11:41:17;;;;;;;9.88;2.60;;;29.80;47.20;;;;;;5060510;28;20059;-69
2021/01/11 11:44:23;;;;;;;10.32;2.60;;;29.90;47.00;;;;;;5061055;28;20491;-69
2021/01/11 11:47:29;;;;;;;9.85;2.50;;;29.90;47.00;;;;;;5060479;28;20040;-68
2021/01/11 11:50:35;;;;;;;11.35;3.13;;;30.00;46.50;;;;;;5065495;28;20099;-69
2021/01/11 11:53:42;;;;;;;13.10;8.13;;;30.10;46.60;;;;;;5058462;28;20087;-68
2021/01/11 11:56:48;;;;;;;11.25;4.03;;;30.20;46.60;;;;;;5059734;28;20025;-68
2021/01/11 11:59:54;;;;;;;16.25;3.40;;;30.20;46.00;;;;;;5066091;28;20059;-68
2021/01/11 12:03:00;;;;;;;7.28;2.80;;;30.20;45.80;;;;;;5066356;28;20074;-68
2021/01/11 12:06:07;;;;;;;8.15;3.00;;;30.30;46.40;;;;;;5063514;28;20527;-68
2021/01/11 12:09:13;;;;;;;7.57;2.63;;;30.30;45.80;;;;;;5066443;28;20028;-69
2021/01/11 12:12:25;;;;;;;14.43;3.38;;;30.30;45.90;;;;;;5068855;28;20059;-69
2021/01/11 12:15:32;;;;;;;10.68;3.25;;;30.40;45.90;;;;;;5066629;28;20025;-68
2021/01/11 12:18:38;;;;;;;7.75;2.78;;;30.50;45.70;;;;;;5067930;28;20048;-69
2021/01/11 12:21:48;;;;;;;7.90;2.83;;;30.50;45.70;;;;;;5063986;28;20429;-68
2021/01/11 12:24:57;;;;;;;11.20;2.45;;;30.60;45.70;;;;;;5060660;28;20021;-69
2021/01/11 12:28:04;;;;;;;14.52;3.20;;;30.60;45.80;;;;;;5061353;28;20391;-68
2021/01/11 12:31:11;;;;;;;15.45;3.97;;;30.60;45.90;;;;;;5064733;28;20064;-68
2021/01/11 12:34:18;;;;;;;10.93;3.22;;;30.60;46.00;;;;;;5065272;28;20021;-69
2021/01/11 12:37:25;;;;;;;8.20;2.70;;;30.60;46.20;;;;;;5064612;28;20520;-70
2021/01/11 12:40:31;;;;;;;17.30;4.53;;;30.70;46.00;;;;;;5066315;28;20063;-68
2021/01/11 12:43:37;;;;;;;24.30;15.77;;;30.70;46.20;;;;;;5067088;28;20040;-70
2021/01/11 12:46:43;;;;;;;19.35;5.40;;;30.70;45.80;;;;;;5067201;28;20127;-69
2021/01/11 12:49:52;;;;;;;14.38;5.60;;;30.70;45.90;;;;;;5065211;28;20102;-67
2021/01/11 12:52:58;;;;;;;12.52;4.75;;;30.70;46.00;;;;;;5067956;28;20020;-68
2021/01/11 12:56:04;;;;;;;21.40;6.28;;;30.60;46.20;;;;;;5061787;28;20059;-69
2021/01/11 12:59:11;;;;;;;14.05;3.60;;;30.70;46.40;;;;;;5062369;28;20032;-69
2021/01/11 13:02:17;;;;;;;12.45;4.05;;;30.70;46.30;;;;;;5065778;28;20088;-70
2021/01/11 13:05:23;;;;;;;13.00;5.10;;;30.70;46.30;;;;;;5063381;28;20060;-70
2021/01/11 13:08:29;;;;;;;13.27;5.30;;;30.70;46.40;;;;;;5061601;28;20471;-70
2021/01/11 13:11:37;;;;;;;13.95;4.45;;;30.60;46.40;;;;;;5065461;28;20025;-69
2021/01/11 13:14:44;;;;;;;13.48;5.53;;;30.70;46.50;;;;;;5061361;28;20063;-70
2021/01/11 13:17:50;;;;;;;17.98;4.32;;;30.70;46.40;;;;;;5064482;28;20036;-70
2021/01/11 13:20:56;;;;;;;11.60;4.05;;;30.70;46.40;;;;;;5065530;28;20032;-69
2021/01/11 13:24:02;;;;;;;14.48;4.40;;;30.80;46.50;;;;;;5064162;28;20031;-69
2021/01/11 13:27:09;;;;;;;12.43;3.45;;;30.70;46.50;;;;;;5063986;28;20032;-68
2021/01/11 13:30:18;;;;;;;16.85;7.32;;;30.70;46.50;;;;;;5065187;28;20021;-68
2021/01/11 13:32:45;;;;;;;17.50;5.45;;;30.70;46.50;;;;;;5064826;28;20463;-69
2021/01/11 13:35:12;;;;;;;16.85;5.13;;;30.70;46.60;;;;;;5065191;28;20523;-70
2021/01/11 13:38:21;;;;;;;18.77;5.25;;;30.70;46.50;;;;;;5063667;28;20028;-68
2021/01/11 13:41:30;;;;;;;19.48;5.68;;;30.80;46.60;;;;;;5059482;28;20445;-69
2021/01/11 13:43:57;;;;;;;13.35;4.32;;;30.80;46.60;;;;;;5062920;28;20048;-70
2021/01/11 13:47:06;;;;;;;15.85;4.82;;;30.80;46.40;;;;;;5062684;28;20029;-70
2021/01/11 13:50:12;;;;;;;13.27;3.67;;;30.90;45.90;;;;;;5062185;28;20387;-71
2021/01/11 13:53:18;;;;;;;15.65;4.53;;;31.10;45.70;;;;;;5067906;28;20040;-70
2021/01/11 13:56:24;;;;;;;17.00;4.97;;;31.20;45.10;;;;;;5065122;28;20073;-70
2021/01/11 13:59:30;;;;;;;17.23;4.80;;;31.10;44.90;;;;;;5064279;28;20107;-70
2021/01/11 14:02:36;;;;;;;12.65;3.92;;;31.20;45.20;;;;;;5062302;28;20033;-69
2021/01/11 14:05:42;;;;;;;11.25;3.95;;;31.30;45.00;;;;;;5061999;28;20522;-72
2021/01/11 14:08:48;;;;;;;17.05;4.57;;;31.20;44.60;;;;;;5060168;28;20037;-71